Seadream 1 — C6PW8 — position and weather

sailwx.info

Track history (hours):
 
Tides and Currents Weather Stations Pressure Air Temp Water Temp Dewpoint Dewpoint Depression Visibility Wind Speed Wind Dir Waves Ship Positions

Seadream 1

Last reported at 2017-Jul-26 12:29 UTC. Time now 2017-Jul-28 08:37 UTC.
Position N 40°37' E 014°30'.

Length 105 m; draft 4.3 m.

Type: Ship. MMSI: 308908000.

Date/timePositionNaut miles runAvg speedWind from/ knotsBaromVisibWave heightAir tempDewpointWater temp
2017-Jul-26 12:29N 40°37' E 014°30'0 0.0
2017-Jul-26 09:09N 40°37' E 014°30'0 0.0
2017-Jul-26 08:42N 40°37' E 014°30'0 0.2
2017-Jul-26 08:24N 40°37' E 014°30'13611.2
2017-Jul-25 20:16N 38°32' E 015°36'1012.9
2017-Jul-25 19:32N 38°23' E 015°41'013.1
2017-Jul-25 19:30N 38°23' E 015°41'712.4
2017-Jul-25 18:57N 38°16' E 015°42'612.8
2017-Jul-25 18:30N 38°11' E 015°37'713.4
2017-Jul-25 18:00N 38°05' E 015°35'1213.4
2017-Jul-25 17:07N 37°55' E 015°26'7 0.6
2017-Jul-25 05:22N 37°50' E 015°21'5 8.7
2017-Jul-25 04:49N 37°50' E 015°27'1110.7
2017-Jul-25 03:49N 37°51' E 015°41'510.2
2017-Jul-25 03:20N 37°52' E 015°47'410.5
2017-Jul-25 02:56N 37°52' E 015°52'15811.3
2017-Jul-24 13:00N 39°38' E 018°23'  
2017-Jul-17 19:17N 44°18' E 014°27'311.5
2017-Jul-17 19:01N 44°20' E 014°24'611.6
2017-Jul-17 18:30N 44°24' E 014°18'611.4
2017-Jul-17 18:00N 44°28' E 014°12'611.3
2017-Jul-17 17:31N 44°32' E 014°06'611.1
2017-Jul-17 16:59N 44°38' E 014°06'714.5
2017-Jul-17 16:30N 44°44' E 014°08'1114.6
2017-Jul-17 15:43N 44°56' E 014°11'1114.9
2017-Jul-17 15:00N 45°06' E 014°14'714.7
2017-Jul-17 14:30N 45°13' E 014°17'7 0.8
2017-Jul-17 06:01N 45°20' E 014°19'1 4.8
2017-Jul-17 05:50N 45°19' E 014°19'3 8.9
2017-Jul-17 05:30N 45°16' E 014°18'5 8.5
2017-Jul-17 04:56N 45°12' E 014°17'4 8.1
2017-Jul-17 04:29N 45°08' E 014°16'12 8.1
2017-Jul-17 03:03N 44°57' E 014°13'0 8.1
2017-Jul-17 03:00N 44°56' E 014°12'5 7.7
2017-Jul-17 02:23N 44°53' E 014°08'3 7.4
2017-Jul-17 02:00N 44°51' E 014°05'4 7.1
2017-Jul-17 01:31N 44°48' E 014°02'3 6.8
2017-Jul-17 01:00N 44°45' E 013°59'3 6.7
2017-Jul-17 00:31N 44°43' E 013°56'3 6.3
2017-Jul-17 00:01N 44°43' E 013°51'3 6.8
2017-Jul-16 23:31N 44°44' E 013°47'3 6.7
2017-Jul-16 23:01N 44°46' E 013°44'4 7.0
2017-Jul-16 22:31N 44°49' E 013°40'4 7.5
2017-Jul-16 22:01N 44°52' E 013°38'4 7.5
2017-Jul-16 21:31N 44°56' E 013°38'4 7.3
2017-Jul-16 21:00N 44°60' E 013°36'4 7.3
2017-Jul-16 20:30N 45°03' E 013°36'2 4.6
2017-Jul-16 20:00N 45°05' E 013°38'0 0.0
2017-Jul-16 19:30N 45°05' E 013°38'0 0.0
2017-Jul-16 19:00N 45°05' E 013°38'0 0.0
2017-Jul-16 18:28N 45°05' E 013°38'0 0.0
2017-Jul-16 17:55N 45°05' E 013°38'0 0.0
2017-Jul-16 17:25N 45°05' E 013°38'0 0.1
2017-Jul-16 16:59N 45°05' E 013°38'0 0.2
2017-Jul-16 16:29N 45°05' E 013°38'0 0.0
2017-Jul-16 15:59N 45°05' E 013°38'0 0.0
2017-Jul-16 15:30N 45°05' E 013°38'0 0.1
2017-Jul-16 15:00N 45°05' E 013°38'0 0.1
2017-Jul-16 14:27N 45°05' E 013°38'0 0.0
2017-Jul-16 13:52N 45°05' E 013°38'0 0.1
2017-Jul-16 13:28N 45°05' E 013°38'0 0.0
2017-Jul-16 12:58N 45°05' E 013°38'  
Track history (hours):
 
Tides and Currents Weather Stations Pressure Air Temp Water Temp Dewpoint Dewpoint Depression Visibility Wind Speed Wind Dir Waves Ship Positions

Seadream 1

Last reported at 2017-Jul-26 12:29 UTC. Time now 2017-Jul-28 08:37 UTC.
Position N 40°37' E 014°30'.

Length 105 m; draft 4.3 m.

Type: Ship. MMSI: 308908000.

Date/timePositionNaut miles runAvg speedWind from/ knotsBaromVisibWave heightAir tempDewpointWater temp
2017-Jul-26 12:29N 40°37' E 014°30'0 0.0
2017-Jul-26 09:09N 40°37' E 014°30'0 0.0
2017-Jul-26 08:42N 40°37' E 014°30'0 0.2
2017-Jul-26 08:24N 40°37' E 014°30'13611.2
2017-Jul-25 20:16N 38°32' E 015°36'1012.9
2017-Jul-25 19:32N 38°23' E 015°41'013.1
2017-Jul-25 19:30N 38°23' E 015°41'712.4
2017-Jul-25 18:57N 38°16' E 015°42'612.8
2017-Jul-25 18:30N 38°11' E 015°37'713.4
2017-Jul-25 18:00N 38°05' E 015°35'1213.4
2017-Jul-25 17:07N 37°55' E 015°26'7 0.6
2017-Jul-25 05:22N 37°50' E 015°21'5 8.7
2017-Jul-25 04:49N 37°50' E 015°27'1110.7
2017-Jul-25 03:49N 37°51' E 015°41'510.2
2017-Jul-25 03:20N 37°52' E 015°47'410.5
2017-Jul-25 02:56N 37°52' E 015°52'15811.3
2017-Jul-24 13:00N 39°38' E 018°23'  
2017-Jul-17 19:17N 44°18' E 014°27'311.5
2017-Jul-17 19:01N 44°20' E 014°24'611.6
2017-Jul-17 18:30N 44°24' E 014°18'611.4
2017-Jul-17 18:00N 44°28' E 014°12'611.3
2017-Jul-17 17:31N 44°32' E 014°06'611.1
2017-Jul-17 16:59N 44°38' E 014°06'714.5
2017-Jul-17 16:30N 44°44' E 014°08'1114.6
2017-Jul-17 15:43N 44°56' E 014°11'1114.9
2017-Jul-17 15:00N 45°06' E 014°14'714.7
2017-Jul-17 14:30N 45°13' E 014°17'7 0.8
2017-Jul-17 06:01N 45°20' E 014°19'1 4.8
2017-Jul-17 05:50N 45°19' E 014°19'3 8.9
2017-Jul-17 05:30N 45°16' E 014°18'5 8.5
2017-Jul-17 04:56N 45°12' E 014°17'4 8.1
2017-Jul-17 04:29N 45°08' E 014°16'12 8.1
2017-Jul-17 03:03N 44°57' E 014°13'0 8.1
2017-Jul-17 03:00N 44°56' E 014°12'5 7.7
2017-Jul-17 02:23N 44°53' E 014°08'3 7.4
2017-Jul-17 02:00N 44°51' E 014°05'4 7.1
2017-Jul-17 01:31N 44°48' E 014°02'3 6.8
2017-Jul-17 01:00N 44°45' E 013°59'3 6.7
2017-Jul-17 00:31N 44°43' E 013°56'3 6.3
2017-Jul-17 00:01N 44°43' E 013°51'3 6.8
2017-Jul-16 23:31N 44°44' E 013°47'3 6.7
2017-Jul-16 23:01N 44°46' E 013°44'4 7.0
2017-Jul-16 22:31N 44°49' E 013°40'4 7.5
2017-Jul-16 22:01N 44°52' E 013°38'4 7.5
2017-Jul-16 21:31N 44°56' E 013°38'4 7.3
2017-Jul-16 21:00N 44°60' E 013°36'4 7.3
2017-Jul-16 20:30N 45°03' E 013°36'2 4.6
2017-Jul-16 20:00N 45°05' E 013°38'0 0.0
2017-Jul-16 19:30N 45°05' E 013°38'0 0.0
2017-Jul-16 19:00N 45°05' E 013°38'0 0.0
2017-Jul-16 18:28N 45°05' E 013°38'0 0.0
2017-Jul-16 17:55N 45°05' E 013°38'0 0.0
2017-Jul-16 17:25N 45°05' E 013°38'0 0.1
2017-Jul-16 16:59N 45°05' E 013°38'0 0.2
2017-Jul-16 16:29N 45°05' E 013°38'0 0.0
2017-Jul-16 15:59N 45°05' E 013°38'0 0.0
2017-Jul-16 15:30N 45°05' E 013°38'0 0.1
2017-Jul-16 15:00N 45°05' E 013°38'0 0.1
2017-Jul-16 14:27N 45°05' E 013°38'0 0.0
2017-Jul-16 13:52N 45°05' E 013°38'0 0.1
2017-Jul-16 13:28N 45°05' E 013°38'0 0.0
2017-Jul-16 12:58N 45°05' E 013°38'  

Dump ship's entire track history